Quinze de Novembro, Brazil
Current Conditions -  °F | °C
As of 8:00 PM on Friday 31 Oct 2014 (Local Time) from SBPF Reporting Station
Scattered Clouds Scattered Clouds  
Wind Chill: 81°   Ceiling: Unl
Heat Index: 82°   Visibility: 6mi
Dew Point: 64°   Wind: 0mph
Humidity: 58%   Direction: NA
Pressure: 29.91"   Gusts: NA
Location:  28.75°S, 53.09°W
Report Text: SBPF 312200Z 00000KT 9999 SCT045 27/18 Q1013
Loading
Personal Weather Stations






























Interactive Weather Map
Tropical Storm Tracking
New forecast layout! Learn more

10-Day Weather Forecast

Advertisements
Track Severe Weather on mobile